Time;durP1;ratioP1;P1;durP2;ratioP2;P2;SDS_P1;SDS_P2;PMS_P1;PMS_P2;Temp;Humidity;BMP_temperature;BMP_pressure;BME280_temperature;BME280_humidity;BME280_pressure;Samples;Min_cycle;Max_cycle;Signal;HPM_P1;HPM_P2
2022/05/06 00:00:30;;;;;;;2.05;1.55;;;;;;;20.44;46.70;102475.72;5027334;28;20052;-45
2022/05/06 00:02:55;;;;;;;1.67;1.20;;;;;;;20.43;46.62;102475.84;5044198;28;20021;-45
2022/05/06 00:05:21;;;;;;;1.33;1.10;;;;;;;20.42;46.70;102476.84;5043318;28;20021;-46
2022/05/06 00:07:46;;;;;;;1.38;1.20;;;;;;;20.40;46.89;102468.88;5043954;28;20287;-45
2022/05/06 00:10:13;;;;;;;2.22;1.35;;;;;;;20.40;46.50;102474.28;5043485;28;20052;-46
2022/05/06 00:12:39;;;;;;;1.80;1.20;;;;;;;20.42;46.74;102476.84;5044346;28;20021;-48
2022/05/06 00:15:07;;;;;;;1.50;1.30;;;;;;;20.41;46.32;102477.84;5043356;28;20352;-50
2022/05/06 00:17:32;;;;;;;1.92;1.58;;;;;;;20.40;46.35;102485.09;5043964;28;20096;-48
2022/05/06 00:19:58;;;;;;;1.40;1.20;;;;;;;20.40;46.37;102478.84;5043959;28;20032;-49
2022/05/06 00:22:23;;;;;;;1.70;1.40;;;;;;;20.39;46.45;102494.19;5046601;28;20244;-47
2022/05/06 00:24:51;;;;;;;1.83;1.33;;;;;;;20.39;46.28;102483.41;5043309;28;20033;-48
2022/05/06 00:27:16;;;;;;;1.55;1.40;;;;;;;20.38;46.62;102483.50;5043899;28;20519;-47
2022/05/06 00:29:42;;;;;;;1.48;1.33;;;;;;;20.38;46.47;102484.38;5043077;28;20108;-50
2022/05/06 00:32:08;;;;;;;1.50;1.35;;;;;;;20.37;46.36;102489.91;5043610;28;20033;-49
2022/05/06 00:34:33;;;;;;;1.83;1.42;;;;;;;20.37;46.60;102488.06;5043695;28;20033;-48
2022/05/06 00:36:59;;;;;;;1.63;1.40;;;;;;;20.37;46.20;102482.66;5042795;28;20045;-51
2022/05/06 00:39:24;;;;;;;1.80;1.38;;;;;;;20.36;46.21;102483.66;5043264;28;20048;-46
2022/05/06 00:41:52;;;;;;;2.10;1.70;;;;;;;20.35;46.24;102479.25;5043124;28;20064;-49
2022/05/06 00:44:18;;;;;;;1.63;1.25;;;;;;;20.33;46.57;102475.84;5043118;28;20033;-46
2022/05/06 00:46:43;;;;;;;1.73;1.40;;;;;;;20.33;46.33;102475.84;5043589;28;20034;-48
2022/05/06 00:49:10;;;;;;;1.90;1.65;;;;;;;20.32;46.55;102471.44;5043995;28;20143;-46
2022/05/06 00:51:36;;;;;;;1.48;1.23;;;;;;;20.33;46.39;102480.38;5042272;28;20087;-46
2022/05/06 00:54:02;;;;;;;1.60;1.40;;;;;;;20.32;46.48;102474.13;5043598;28;20052;-45
2022/05/06 00:56:27;;;;;;;1.45;1.20;;;;;;;20.31;46.37;102474.28;5043131;28;20041;-48
2022/05/06 00:58:53;;;;;;;1.65;1.30;;;;;;;20.30;46.27;102473.41;5042187;28;20573;-44
2022/05/06 01:01:18;;;;;;;1.33;1.23;;;;;;;20.30;46.50;102476.09;5043033;28;20061;-47
2022/05/06 01:03:44;;;;;;;1.60;1.33;;;;;;;20.30;46.43;102476.09;5043693;28;20037;-46
2022/05/06 01:06:16;;;;;;;1.80;1.42;;;;;;;20.30;46.34;102483.34;5043386;28;20040;-47
2022/05/06 01:08:42;;;;;;;1.60;1.33;;;;;;;20.27;46.33;102473.69;5043298;28;20033;-45
2022/05/06 01:11:11;;;;;;;1.52;1.42;;;;;;;20.28;46.45;102469.16;5042731;28;20041;-46
2022/05/06 01:13:46;;;;;;;1.25;1.10;;;;;;;20.28;46.29;102475.41;5043185;28;20041;-48
2022/05/06 01:16:12;;;;;;;1.92;1.70;;;;;;;20.27;46.43;102471.00;5042824;28;20068;-45
2022/05/06 01:18:37;;;;;;;1.52;1.42;;;;;;;20.26;46.02;102474.69;5043306;28;20033;-47
2022/05/06 01:21:04;;;;;;;1.60;1.50;;;;;;;20.25;46.27;102478.38;5043049;28;20049;-47
2022/05/06 01:23:30;;;;;;;1.42;1.13;;;;;;;20.26;46.01;102484.63;5058213;28;20037;-46
2022/05/06 01:25:55;;;;;;;1.50;1.10;;;;;;;20.26;46.29;102484.63;5062630;28;20033;-46
2022/05/06 01:28:22;;;;;;;2.17;1.75;;;;;;;20.25;46.17;102482.94;5063324;28;20029;-46
2022/05/06 01:30:48;;;;;;;1.55;1.40;;;;;;;20.25;46.29;102485.63;5062519;28;20032;-49
2022/05/06 01:33:15;;;;;;;1.90;1.30;;;;;;;20.24;46.04;102479.38;5061952;28;20017;-49
2022/05/06 01:36:02;;;;;;;2.22;1.40;;;;;;;20.23;46.23;102485.78;5062973;28;20064;-48
2022/05/06 01:38:33;;;;;;;1.50;1.30;;;;;;;20.22;46.37;102481.38;5049209;28;20548;-48
2022/05/06 01:41:03;;;;;;;2.13;1.70;;;;;;;20.22;46.03;102481.38;5041201;28;20026;-48
2022/05/06 01:43:48;;;;;;;2.20;1.45;;;;;;;20.22;45.93;102486.78;5043146;28;20040;-46
2022/05/06 01:46:14;;;;;;;1.42;1.30;;;;;;;20.20;46.13;102486.03;5041189;28;20596;-49
2022/05/06 01:48:41;;;;;;;1.48;1.38;;;;;;;20.20;46.14;102488.75;5045436;28;20108;-45
2022/05/06 01:51:09;;;;;;;1.35;1.17;;;;;;;20.19;46.01;102487.03;5046544;28;20052;-50
2022/05/06 01:53:35;;;;;;;1.55;1.42;;;;;;;20.18;45.92;102494.31;5046706;28;20688;-48
2022/05/06 01:56:02;;;;;;;1.65;1.20;;;;;;;20.18;46.06;102498.84;5044844;28;20097;-48
2022/05/06 01:58:27;;;;;;;1.33;1.20;;;;;;;20.18;45.80;102497.00;5046381;28;20037;-49
2022/05/06 02:00:52;;;;;;;1.95;1.20;;;;;;;20.17;46.24;102491.72;5045790;28;20095;-48
2022/05/06 02:06:01;;;;;;;1.98;1.70;;;;;;;20.15;46.21;102494.56;5046310;28;20068;-49
2022/05/06 02:08:27;;;;;;;1.95;1.50;;;;;;;20.14;45.77;102494.72;5045783;28;20037;-48
2022/05/06 02:10:52;;;;;;;1.90;1.52;;;;;;;20.14;46.05;102492.88;5045633;28;20032;-47
2022/05/06 02:13:19;;;;;;;2.75;2.10;;;;;;;20.13;45.91;102491.13;5046358;28;20044;-48
2022/05/06 02:15:44;;;;;;;2.00;1.60;;;;;;;20.12;46.17;102489.44;5045426;28;20031;-49
2022/05/06 02:18:10;;;;;;;1.80;1.60;;;;;;;20.12;45.82;102488.59;5045082;28;20081;-47
2022/05/06 02:20:35;;;;;;;2.10;1.75;;;;;;;20.12;46.17;102502.94;5044580;28;20025;-48
2022/05/06 02:23:00;;;;;;;2.92;2.00;;;;;;;20.11;46.15;102487.72;5057194;28;20037;-47
2022/05/06 02:25:26;;;;;;;2.00;1.75;;;;;;;20.11;45.64;102489.59;5065357;28;20054;-48
2022/05/06 02:27:51;;;;;;;1.92;1.60;;;;;;;20.10;45.25;102482.47;5066119;28;20370;-50
2022/05/06 02:33:12;;;;;;;2.33;1.70;;;;;;;20.09;45.81;102484.34;5065979;28;20128;-49
2022/05/06 02:35:39;;;;;;;2.45;1.50;;;;;;;20.07;46.04;102478.19;5065913;28;20056;-48
2022/05/06 02:38:08;;;;;;;1.67;1.55;;;;;;;20.07;45.61;102486.31;5053219;28;20483;-48
2022/05/06 02:40:37;;;;;;;2.50;1.63;;;;;;;20.06;45.51;102481.06;5045142;28;20036;-48
2022/05/06 02:43:04;;;;;;;2.75;1.60;;;;;;;20.04;45.84;102488.41;5045808;28;20116;-45
2022/05/06 02:45:29;;;;;;;1.88;1.50;;;;;;;20.06;46.21;102486.44;5044898;28;20549;-49
2022/05/06 02:47:56;;;;;;;1.65;1.52;;;;;;;20.05;45.79;102484.72;5045650;28;20025;-46
2022/05/06 02:50:21;;;;;;;2.33;1.60;;;;;;;20.04;45.84;102481.16;5045693;28;20060;-48
2022/05/06 02:52:46;;;;;;;1.80;1.70;;;;;;;20.03;45.49;102484.88;5044264;28;20013;-48
2022/05/06 02:55:11;;;;;;;1.60;1.50;;;;;;;20.04;45.62;102491.13;5044894;28;20036;-48
2022/05/06 02:57:37;;;;;;;1.83;1.50;;;;;;;20.03;45.82;102489.41;5045468;28;20408;-46
2022/05/06 03:00:03;;;;;;;1.17;1.05;;;;;;;20.04;45.33;102493.81;5044243;28;20060;-46
2022/05/06 03:02:29;;;;;;;1.70;1.60;;;;;;;20.03;45.67;102489.41;5045273;28;20032;-49
2022/05/06 03:04:55;;;;;;;1.85;1.60;;;;;;;20.00;45.75;102481.59;5045164;28;20030;-48
2022/05/06 03:07:20;;;;;;;1.67;1.58;;;;;;;20.01;45.61;102484.16;5044982;28;20029;-49
2022/05/06 03:09:45;;;;;;;1.40;1.30;;;;;;;20.00;45.25;102486.97;5044753;28;20074;-47
2022/05/06 03:12:10;;;;;;;2.20;1.65;;;;;;;19.99;45.32;102488.84;5044657;28;20748;-49
2022/05/06 03:14:36;;;;;;;2.08;1.50;;;;;;;19.99;45.86;102488.84;5044793;28;20021;-47
2022/05/06 03:17:01;;;;;;;1.75;1.40;;;;;;;19.99;45.58;102486.13;5044830;28;20025;-48
2022/05/06 03:19:26;;;;;;;1.50;1.33;;;;;;;19.99;45.28;102488.84;5045131;28;20032;-49
2022/05/06 03:21:54;;;;;;;1.63;1.52;;;;;;;19.98;45.39;102482.59;5046131;28;20141;-47
2022/05/06 03:24:19;;;;;;;1.63;1.52;;;;;;;19.95;45.10;102477.44;5064972;28;20021;-46
2022/05/06 03:26:45;;;;;;;1.52;1.38;;;;;;;19.97;45.05;102475.47;5062943;28;20028;-47
2022/05/06 03:29:10;;;;;;;2.00;1.70;;;;;;;19.97;45.26;102480.88;5064388;28;20025;-49
2022/05/06 03:31:36;;;;;;;1.40;1.30;;;;;;;19.96;45.12;102475.59;5063404;28;20054;-48
2022/05/06 03:34:02;;;;;;;1.85;1.60;;;;;;;19.91;45.07;102467.91;5064806;28;20028;-48
2022/05/06 03:36:28;;;;;;;1.48;1.38;;;;;;;19.96;45.00;102486.41;5063259;28;20048;-50
2022/05/06 03:38:53;;;;;;;1.50;1.40;;;;;;;19.95;45.16;102485.53;5044309;28;20040;-51
2022/05/06 03:41:18;;;;;;;1.90;1.63;;;;;;;19.94;45.09;102486.53;5043837;28;20101;-51
2022/05/06 03:43:43;;;;;;;1.73;1.50;;;;;;;19.93;45.38;102484.84;5044630;28;20084;-46
2022/05/06 03:46:08;;;;;;;1.63;1.52;;;;;;;19.93;45.25;102481.31;5043800;28;20375;-50
2022/05/06 03:48:34;;;;;;;1.42;1.33;;;;;;;19.93;44.86;102489.41;5044536;28;20033;-49
2022/05/06 03:53:44;;;;;;;1.95;1.70;;;;;;;19.92;45.05;102490.38;5044543;28;20024;-49
2022/05/06 03:56:09;;;;;;;1.52;1.42;;;;;;;19.91;44.96;102486.81;5043924;28;20025;-48
2022/05/06 03:58:34;;;;;;;2.13;1.70;;;;;;;19.91;45.11;102485.97;5044387;28;20039;-47
2022/05/06 04:01:00;;;;;;;1.80;1.48;;;;;;;19.91;45.12;102480.56;5043693;28;20494;-48
2022/05/06 04:03:25;;;;;;;1.77;1.60;;;;;;;19.90;45.01;102482.41;5043865;28;20647;-50
2022/05/06 04:05:50;;;;;;;1.80;1.55;;;;;;;19.90;45.09;102487.81;5038440;28;20037;-51
2022/05/06 04:08:16;;;;;;;1.90;1.70;;;;;;;19.91;44.83;102489.50;5034920;28;20036;-46
2022/05/06 04:10:41;;;;;;;3.03;2.05;;;;;;;19.93;44.79;102494.78;5035177;28;20029;-49
2022/05/06 04:13:06;;;;;;;1.92;1.70;;;;;;;19.93;44.97;102494.78;5041052;28;20038;-49
2022/05/06 04:15:34;;;;;;;2.33;1.83;;;;;;;19.93;45.04;102502.91;5035059;28;20030;-49
2022/05/06 04:18:01;;;;;;;2.42;1.90;;;;;;;19.91;45.04;102500.31;5041092;28;20572;-47
2022/05/06 04:25:55;;;;;;;2.25;1.80;;;;;;;19.91;44.92;102497.59;5033502;28;20028;-50
2022/05/06 04:28:21;;;;;;;2.30;1.80;;;;;;;19.91;45.06;102502.16;5040674;28;20021;-46
2022/05/06 04:30:46;;;;;;;2.10;1.73;;;;;;;19.90;44.93;102492.38;5042378;28;20542;-49
2022/05/06 04:33:11;;;;;;;1.85;1.52;;;;;;;19.89;45.15;102499.59;5040947;28;20028;-48
2022/05/06 04:35:36;;;;;;;1.90;1.58;;;;;;;19.90;44.99;102500.47;5041751;28;20104;-49
2022/05/06 04:38:02;;;;;;;2.38;1.80;;;;;;;19.89;45.10;102502.31;5036101;28;20057;-48
2022/05/06 04:40:27;;;;;;;2.00;1.73;;;;;;;19.89;45.25;102507.72;5039672;28;20029;-51
2022/05/06 04:42:52;;;;;;;1.80;1.50;;;;;;;19.90;45.12;102509.41;5037361;28;20025;-49
2022/05/06 04:45:18;;;;;;;1.40;1.30;;;;;;;19.89;45.22;102502.31;5042845;28;20029;-48
2022/05/06 04:47:43;;;;;;;2.00;1.70;;;;;;;19.89;45.09;102505.00;5043655;28;20087;-47
2022/05/06 04:50:08;;;;;;;2.45;1.80;;;;;;;19.85;45.30;102506.28;5034217;28;20032;-50
2022/05/06 04:52:34;;;;;;;1.85;1.48;;;;;;;19.89;44.93;102509.56;5041042;28;20033;-50
2022/05/06 04:54:59;;;;;;;2.33;1.50;;;;;;;19.89;45.12;102514.94;5037315;28;20104;-51
2022/05/06 04:57:24;;;;;;;2.05;1.58;;;;;;;19.89;45.42;102515.81;5042926;28;20093;-46
2022/05/06 04:59:49;;;;;;;2.40;1.90;;;;;;;19.89;45.08;102520.34;5042944;28;20029;-48
2022/05/06 05:02:16;;;;;;;2.70;1.77;;;;;;;19.88;45.02;102515.91;5043129;28;20033;-49
2022/05/06 05:04:41;;;;;;;2.10;1.90;;;;;;;19.89;44.99;102520.34;5042122;28;20021;-46
2022/05/06 05:07:07;;;;;;;2.35;1.83;;;;;;;19.89;45.41;102512.25;5030804;28;20087;-47
2022/05/06 05:09:32;;;;;;;2.15;1.88;;;;;;;19.89;45.13;102518.50;5042841;28;20085;-46
2022/05/06 05:11:57;;;;;;;2.17;1.98;;;;;;;19.88;45.10;102527.59;5042285;28;20037;-48
2022/05/06 05:14:23;;;;;;;2.15;1.67;;;;;;;19.88;45.15;102527.59;5042573;28;20183;-49
2022/05/06 05:16:50;;;;;;;1.92;1.45;;;;;;;19.86;45.23;102526.00;5043163;28;20398;-46
2022/05/06 05:19:15;;;;;;;2.10;1.70;;;;;;;19.88;45.32;102533.00;5043255;28;20029;-49
2022/05/06 05:21:41;;;;;;;1.88;1.67;;;;;;;19.89;45.14;102533.84;5043674;28;20087;-48
2022/05/06 05:24:07;;;;;;;2.72;1.98;;;;;;;19.88;45.28;102533.00;5066721;28;20028;-50
2022/05/06 05:26:32;;;;;;;2.97;2.10;;;;;;;19.88;45.13;102533.00;5066491;28;20394;-51
2022/05/06 05:28:57;;;;;;;2.17;1.63;;;;;;;19.88;45.03;102532.13;5066701;28;20194;-47
2022/05/06 05:31:22;;;;;;;2.13;1.60;;;;;;;19.86;45.17;102536.81;5055604;28;20033;-48
2022/05/06 05:33:49;;;;;;;2.40;1.90;;;;;;;19.86;45.02;102532.25;5047315;28;20033;-52
2022/05/06 05:36:14;;;;;;;1.75;1.60;;;;;;;19.86;45.36;102543.06;5044654;28;20246;-49
2022/05/06 05:38:39;;;;;;;1.67;1.45;;;;;;;19.86;45.18;102534.97;5061389;28;20535;-53
2022/05/06 05:41:04;;;;;;;2.33;1.45;;;;;;;19.86;45.63;102534.97;5064430;28;20025;-49
2022/05/06 05:48:58;;;;;;;2.25;1.70;;;;;;;19.80;45.42;102527.41;5046900;28;20059;-51
2022/05/06 05:51:23;;;;;;;2.00;1.50;;;;;;;19.84;45.41;102528.00;5045005;28;20037;-53
2022/05/06 05:53:48;;;;;;;2.05;1.52;;;;;;;19.83;45.61;102521.72;5052549;28;20051;-51
2022/05/06 05:56:13;;;;;;;2.38;1.88;;;;;;;19.84;45.43;102526.16;5065862;28;20025;-51
2022/05/06 05:58:39;;;;;;;1.95;1.60;;;;;;;19.84;45.36;102530.72;5066545;28;20566;-51
2022/05/06 06:01:05;;;;;;;2.70;1.98;;;;;;;19.80;45.45;102527.41;5065682;28;20029;-48
2022/05/06 06:03:30;;;;;;;1.90;1.50;;;;;;;19.84;45.43;102536.09;5066662;28;20064;-48
2022/05/06 06:05:55;;;;;;;1.80;1.60;;;;;;;19.83;45.67;102546.03;5066236;28;20025;-50
2022/05/06 06:08:23;;;;;;;2.00;1.50;;;;;;;19.82;45.71;102536.22;5066198;28;20029;-47
2022/05/06 06:10:48;;;;;;;2.00;1.50;;;;;;;19.83;45.80;102531.69;5065989;28;20021;-48
2022/05/06 06:13:16;;;;;;;2.08;1.60;;;;;;;19.83;45.80;102537.91;5066255;28;20032;-50
2022/05/06 06:15:41;;;;;;;2.95;2.03;;;;;;;19.79;45.64;102533.78;5065398;28;20100;-48
2022/05/06 06:18:07;;;;;;;1.75;1.60;;;;;;;19.82;45.57;102538.91;5066308;28;20020;-49
2022/05/06 06:20:32;;;;;;;2.20;1.90;;;;;;;19.81;45.54;102537.22;5062722;28;20379;-48
2022/05/06 06:22:57;;;;;;;2.15;1.52;;;;;;;19.82;45.46;102543.47;5056482;28;20048;-47
2022/05/06 06:25:23;;;;;;;1.55;1.40;;;;;;;19.81;45.63;102539.91;5051796;28;20037;-48
2022/05/06 06:27:48;;;;;;;2.53;1.80;;;;;;;19.82;45.51;102543.47;5045837;28;20040;-51
2022/05/06 06:30:13;;;;;;;1.83;1.30;;;;;;;19.81;45.52;102544.47;5043832;28;20065;-52
2022/05/06 06:32:39;;;;;;;2.03;1.33;;;;;;;19.81;45.56;102542.63;5045501;28;20104;-49
2022/05/06 06:35:04;;;;;;;1.80;1.52;;;;;;;19.80;45.82;102549.00;5045266;28;20032;-49
2022/05/06 06:37:32;;;;;;;1.92;1.60;;;;;;;19.82;45.58;102546.16;5045430;28;20049;-51
2022/05/06 06:39:57;;;;;;;2.30;1.88;;;;;;;19.81;45.62;102552.56;5045587;28;20022;-48
2022/05/06 06:42:23;;;;;;;2.13;1.83;;;;;;;19.79;45.96;102555.38;5045029;28;20033;-49
2022/05/06 06:44:48;;;;;;;2.05;1.70;;;;;;;19.79;46.10;102555.38;5044961;28;20056;-48
2022/05/06 06:47:14;;;;;;;2.05;1.63;;;;;;;19.79;45.94;102552.69;5045647;28;20089;-48
2022/05/06 06:49:39;;;;;;;2.58;2.00;;;;;;;19.78;46.14;102556.38;5044451;28;20026;-48
2022/05/06 06:52:04;;;;;;;2.58;1.80;;;;;;;19.77;46.29;102562.75;5045394;28;20463;-51
2022/05/06 06:54:30;;;;;;;2.63;2.10;;;;;;;19.74;46.27;102549.53;5044205;28;20041;-47
2022/05/06 06:56:55;;;;;;;2.53;1.92;;;;;;;19.77;46.04;102560.06;5044471;28;20033;-49
2022/05/06 06:59:20;;;;;;;2.65;2.13;;;;;;;19.78;46.04;102560.91;5037383;28;20136;-53
2022/05/06 07:01:46;;;;;;;2.63;1.95;;;;;;;19.77;46.17;102565.47;5036750;28;20152;-53
2022/05/06 07:04:11;;;;;;;1.85;1.67;;;;;;;19.77;46.30;102573.56;5042152;28;20037;-53
2022/05/06 07:12:05;;;;;;;3.22;2.35;;;;;;;19.77;46.55;102576.25;5042665;28;20029;-50
2022/05/06 07:14:30;;;;;;;3.03;2.25;;;;;;;19.75;46.24;102575.53;5039779;28;20036;-50
2022/05/06 07:16:56;;;;;;;3.08;2.35;;;;;;;19.76;46.87;102584.50;5042030;28;20060;-50
2022/05/06 07:19:21;;;;;;;2.85;2.17;;;;;;;19.76;46.90;102577.25;5043393;28;20025;-52
2022/05/06 07:21:49;;;;;;;2.50;1.80;;;;;;;19.77;46.51;102589.75;5043604;28;20037;-53
2022/05/06 07:24:15;;;;;;;2.80;2.08;;;;;;;19.77;46.54;102588.91;5042667;28;20085;-49
2022/05/06 07:26:40;;;;;;;2.17;1.83;;;;;;;19.78;46.46;102588.75;5041592;28;20026;-48
2022/05/06 07:29:05;;;;;;;2.97;2.25;;;;;;;19.78;46.61;102594.16;5040590;28;20041;-51
2022/05/06 07:31:31;;;;;;;2.90;2.20;;;;;;;19.78;46.53;102596.84;5042396;28;20051;-50
2022/05/06 07:33:56;;;;;;;3.38;2.25;;;;;;;19.79;46.81;102597.72;5042531;28;20029;-50
2022/05/06 07:36:23;;;;;;;2.75;2.15;;;;;;;19.79;46.75;102597.72;5041427;28;20064;-50
2022/05/06 07:38:49;;;;;;;2.53;1.75;;;;;;;19.79;46.76;102600.41;5041472;28;20049;-50
2022/05/06 07:41:14;;;;;;;2.55;2.22;;;;;;;19.79;46.43;102601.25;5041678;28;20053;-54
2022/05/06 07:43:39;;;;;;;3.50;2.25;;;;;;;19.80;46.47;102599.44;5042462;28;20030;-47
2022/05/06 07:46:04;;;;;;;2.03;1.73;;;;;;;19.81;46.50;102598.44;5037779;28;20034;-51
2022/05/06 07:48:30;;;;;;;2.55;1.88;;;;;;;19.81;46.60;102603.84;5042271;28;20101;-50
2022/05/06 07:50:55;;;;;;;2.83;2.25;;;;;;;19.81;46.50;102601.16;5041879;28;20120;-50
2022/05/06 07:53:20;;;;;;;1.50;1.40;;;;;;;19.82;46.61;102600.16;5057475;28;20049;-51
2022/05/06 07:55:45;;;;;;;2.05;1.67;;;;;;;19.81;46.66;102596.59;5039639;28;20056;-52
2022/05/06 07:58:12;;;;;;;2.25;1.42;;;;;;;19.82;46.52;102595.59;5040337;28;20034;-49
2022/05/06 08:00:37;;;;;;;1.40;1.30;;;;;;;19.83;46.33;102600.00;5040437;28;20036;-50
2022/05/06 08:05:47;;;;;;;1.55;1.45;;;;;;;19.83;46.58;102594.59;5040887;28;20072;-53
2022/05/06 08:08:13;;;;;;;2.47;1.77;;;;;;;19.81;46.48;102585.81;5040297;28;20045;-50
2022/05/06 08:10:38;;;;;;;1.38;1.27;;;;;;;19.86;46.57;102593.50;5040830;28;20033;-53
2022/05/06 08:13:04;;;;;;;1.52;1.42;;;;;;;19.85;46.85;102589.09;5041989;28;20044;-52
2022/05/06 08:15:29;;;;;;;1.42;1.17;;;;;;;19.86;46.56;102585.41;5040698;28;20025;-51
2022/05/06 08:17:54;;;;;;;2.33;1.77;;;;;;;19.86;46.61;102585.41;5041760;28;20057;-48
2022/05/06 08:20:20;;;;;;;1.55;1.40;;;;;;;19.87;46.76;102590.66;5040834;28;20405;-54
2022/05/06 08:22:45;;;;;;;1.35;1.25;;;;;;;19.87;46.50;102587.09;5043431;28;20060;-47
2022/05/06 08:25:11;;;;;;;1.70;1.50;;;;;;;19.87;46.44;102579.00;5040146;28;20037;-52
2022/05/06 08:27:40;;;;;;;1.33;1.13;;;;;;;19.90;46.46;102590.38;5041119;28;20105;-49
2022/05/06 08:30:06;;;;;;;;;;;;;;;19.86;46.70;102590.78;5041262;28;20044;-53
2022/05/06 08:32:31;;;;;;;1.60;1.50;;;;;;;19.88;46.41;102584.28;5042701;28;19909;-54
2022/05/06 08:34:56;;;;;;;2.17;1.70;;;;;;;19.88;46.56;102584.28;5042872;28;20033;-50
2022/05/06 08:37:22;;;;;;;1.30;1.20;;;;;;;19.90;46.50;102590.38;5039410;28;20057;-49
2022/05/06 08:39:47;;;;;;;1.95;1.15;;;;;;;19.92;46.20;102590.25;5034204;28;20033;-50
2022/05/06 08:42:19;;;;;;;1.67;1.40;;;;;;;19.94;46.33;102582.88;5033430;28;20065;-48
2022/05/06 08:52:58;;;;;;;1.67;1.00;;;;;;;19.97;46.37;102578.06;5023259;28;20064;-47
2022/05/06 08:55:23;;;;;;;1.50;1.40;;;;;;;19.99;46.69;102575.22;5041728;28;20064;-46
2022/05/06 08:57:48;;;;;;;1.33;1.23;;;;;;;20.00;46.28;102574.22;5043100;28;20470;-50
2022/05/06 09:00:14;;;;;;;2.70;1.35;;;;;;;20.01;45.98;102572.38;5042755;28;20037;-48
2022/05/06 09:02:40;;;;;;;1.55;1.27;;;;;;;19.98;46.19;102568.13;5043045;28;20033;-48
2022/05/06 09:05:15;;;;;;;1.48;1.38;;;;;;;20.04;46.03;102574.81;5043560;28;20029;-47
2022/05/06 09:07:41;;;;;;;1.60;1.25;;;;;;;20.04;46.30;102577.53;5058356;28;20037;-49
2022/05/06 09:10:14;;;;;;;1.60;1.27;;;;;;;20.04;45.81;102564.88;5038140;28;20544;-46
2022/05/06 09:12:46;;;;;;;1.50;1.30;;;;;;;20.07;46.26;102569.16;5042670;28;20040;-45
2022/05/06 09:17:59;;;;;;;1.20;1.10;;;;;;;20.09;45.72;102567.16;5043096;28;20060;-45
2022/05/06 09:20:26;;;;;;;1.30;1.20;;;;;;;20.09;46.13;102568.03;5042776;28;20029;-47
2022/05/06 09:22:52;;;;;;;1.10;1.00;;;;;;;20.09;45.92;102565.34;5052036;28;20017;-46
2022/05/06 09:25:37;;;;;;;1.33;1.23;;;;;;;20.12;45.98;102566.91;5044858;28;20083;-46
2022/05/06 09:28:02;;;;;;;1.17;1.08;;;;;;;20.12;46.30;102564.19;5043083;28;20014;-47
2022/05/06 09:30:28;;;;;;;1.30;1.20;;;;;;;20.13;45.65;102555.09;5042128;28;20025;-47
2022/05/06 09:32:53;;;;;;;1.40;1.30;;;;;;;20.14;45.95;102556.81;5041579;28;20782;-49
2022/05/06 09:35:19;;;;;;;1.27;1.17;;;;;;;20.14;45.91;102551.44;5042981;28;20051;-46
2022/05/06 09:37:47;;;;;;;1.25;1.13;;;;;;;20.14;46.20;102554.97;5042899;28;20041;-46
2022/05/06 09:40:20;;;;;;;1.17;1.08;;;;;;;20.16;46.15;102557.53;5042712;28;20014;-45
2022/05/06 09:42:55;;;;;;;1.10;1.00;;;;;;;20.16;45.65;102550.28;5042849;28;20022;-46
2022/05/06 09:45:34;;;;;;;1.20;1.10;;;;;;;20.17;45.63;102551.97;5042427;28;20021;-48
2022/05/06 09:48:01;;;;;;;1.38;1.27;;;;;;;20.16;45.71;102552.97;5042976;28;20033;-47
2022/05/06 09:50:34;;;;;;;1.30;1.20;;;;;;;20.18;45.87;102559.13;5042938;28;20029;-48
2022/05/06 09:53:01;;;;;;;1.00;0.90;;;;;;;20.18;45.38;102556.41;5041451;28;20022;-47
2022/05/06 09:55:28;;;;;;;0.80;0.80;;;;;;;20.17;45.35;102549.28;5041341;28;20084;-49
2022/05/06 09:57:55;;;;;;;1.10;1.00;;;;;;;20.20;45.82;102551.72;5042809;28;20033;-45
2022/05/06 10:00:21;;;;;;;1.20;1.10;;;;;;;20.20;45.22;102549.00;5042255;28;20034;-48
2022/05/06 10:02:46;;;;;;;1.17;1.02;;;;;;;20.19;45.38;102549.16;5041368;28;20055;-46
2022/05/06 10:05:11;;;;;;;1.48;1.23;;;;;;;20.21;45.39;102548.00;5041590;28;20035;-47
2022/05/06 10:07:41;;;;;;;1.38;1.20;;;;;;;20.24;45.40;102549.59;5042653;28;20045;-48
2022/05/06 10:10:07;;;;;;;1.10;1.00;;;;;;;20.25;45.47;102555.84;5045289;28;20047;-49
2022/05/06 10:12:41;;;;;;;1.30;1.13;;;;;;;20.24;45.13;102549.59;5045868;28;20057;-46
2022/05/06 10:15:08;;;;;;;1.30;1.00;;;;;;;20.20;45.62;102540.91;5040150;28;20079;-47
2022/05/06 10:17:49;;;;;;;1.02;0.93;;;;;;;20.26;45.43;102542.19;5026357;28;20129;-46
2022/05/06 10:20:41;;;;;;;1.10;1.00;;;;;;;20.25;45.27;102535.09;5033367;28;20049;-48
2022/05/06 10:23:15;;;;;;;1.30;1.20;;;;;;;20.26;45.62;102533.25;5054574;28;20021;-50
2022/05/06 10:25:41;;;;;;;1.20;1.10;;;;;;;20.26;45.64;102531.41;5033517;28;20033;-52
2022/05/06 10:34:06;;;;;;;1.27;1.10;;;;;;;20.27;45.71;102525.03;5042094;28;20060;-50
2022/05/06 10:36:48;;;;;;;1.15;1.02;;;;;;;20.30;45.42;102521.16;5043131;28;20041;-47
2022/05/06 10:39:27;;;;;;;0.98;0.90;;;;;;;20.31;45.31;102520.19;5043091;28;20025;-47
2022/05/06 10:41:59;;;;;;;1.30;1.20;;;;;;;20.31;45.51;102517.50;5042663;28;20052;-47
2022/05/06 10:44:41;;;;;;;1.38;1.10;;;;;;;20.32;45.47;102508.41;5042235;28;20043;-47
2022/05/06 10:47:13;;;;;;;1.67;1.10;;;;;;;20.34;45.41;102522.59;5042968;28;20061;-46
2022/05/06 10:49:38;;;;;;;1.40;1.00;;;;;;;20.33;45.55;102508.25;5043230;28;20036;-46
2022/05/06 10:52:15;;;;;;;1.35;1.10;;;;;;;20.36;45.55;102509.81;5042940;28;20080;-46
2022/05/06 10:54:47;;;;;;;1.02;1.00;;;;;;;20.36;45.48;102509.81;5042749;28;20033;-46
2022/05/06 10:57:12;;;;;;;1.65;1.20;;;;;;;20.37;45.64;102498.03;5041159;28;20526;-47
2022/05/06 10:59:48;;;;;;;1.15;1.05;;;;;;;20.40;45.32;102506.72;5042497;28;20064;-46
2022/05/06 11:02:13;;;;;;;1.63;1.25;;;;;;;20.39;45.71;102487.91;5043023;28;20027;-47
2022/05/06 11:04:38;;;;;;;1.50;1.05;;;;;;;20.41;45.37;102494.03;5043234;28;20036;-46
2022/05/06 11:07:13;;;;;;;1.50;1.00;;;;;;;20.42;45.80;102487.66;5041552;28;20029;-47
2022/05/06 11:09:39;;;;;;;1.33;1.08;;;;;;;20.42;45.42;102483.09;5042776;28;20033;-46
2022/05/06 11:12:04;;;;;;;1.30;1.20;;;;;;;20.44;45.33;102477.56;5042685;28;20021;-49
2022/05/06 11:14:29;;;;;;;1.60;1.27;;;;;;;20.46;45.74;102486.38;5040071;28;20074;-53
2022/05/06 11:17:15;;;;;;;1.73;0.93;;;;;;;20.47;45.50;102483.53;5042304;28;20060;-52
2022/05/06 11:19:41;;;;;;;1.23;1.02;;;;;;;20.47;45.51;102480.84;5042568;28;20036;-47
2022/05/06 11:22:09;;;;;;;1.75;1.40;;;;;;;20.51;45.63;102480.56;5044298;28;20013;-54
2022/05/06 11:24:35;;;;;;;;;;;;;;;20.47;45.66;102480.84;5043077;28;20030;-50
2022/05/06 11:27:14;;;;;;;2.15;1.35;;;;;;;20.49;45.82;102469.91;5041249;28;19939;-48
2022/05/06 11:29:56;;;;;;;1.77;1.40;;;;;;;20.53;46.05;102463.25;5042308;28;20022;-52
2022/05/06 11:32:28;;;;;;;2.15;1.10;;;;;;;20.54;45.86;102462.22;5042970;28;20048;-52
2022/05/06 11:35:10;;;;;;;1.92;1.30;;;;;;;20.57;46.18;102461.97;5039069;28;20032;-49
2022/05/06 11:37:40;;;;;;;1.65;1.20;;;;;;;20.59;46.07;102459.94;5040573;28;20080;-54
2022/05/06 11:42:49;;;;;;;2.17;1.30;;;;;;;20.61;45.91;102457.97;5037311;28;20034;-52
2022/05/06 11:48:05;;;;;;;1.40;1.17;;;;;;;20.65;46.11;102451.28;5039252;28;20028;-50
2022/05/06 11:50:33;;;;;;;2.00;1.42;;;;;;;20.68;46.10;102448.28;5039883;28;20060;-50
2022/05/06 11:52:59;;;;;;;1.88;1.38;;;;;;;20.71;46.26;102442.59;5035261;28;20036;-51
2022/05/06 11:55:25;;;;;;;2.25;1.10;;;;;;;20.74;46.01;102446.88;5041584;28;20064;-48
2022/05/06 11:57:50;;;;;;;2.33;1.30;;;;;;;20.77;46.34;102445.72;5038595;28;20041;-50
2022/05/06 12:00:16;;;;;;;2.40;1.70;;;;;;;20.79;46.30;102452.69;5039825;28;20021;-51
2022/05/06 12:02:49;;;;;;;2.47;1.77;;;;;;;20.82;46.45;102441.59;5040968;28;20022;-52
2022/05/06 12:05:15;;;;;;;1.83;1.33;;;;;;;20.84;46.48;102442.31;5041056;28;20052;-52
2022/05/06 12:07:41;;;;;;;2.30;1.45;;;;;;;20.84;46.17;102446.88;5041558;28;20025;-52
2022/05/06 12:10:06;;;;;;;2.00;1.50;;;;;;;20.89;46.50;102447.28;5040802;28;20548;-52
2022/05/06 12:12:31;;;;;;;1.85;1.13;;;;;;;20.92;46.35;102439.72;5041500;28;20147;-53
2022/05/06 12:15:10;;;;;;;1.58;1.48;;;;;;;20.95;46.15;102434.03;5040950;28;20571;-50